sensor_id;sensor_type;location;lat;lon;timestamp;P1;durP1;ratioP1;P2;durP2;ratioP2
67889;SDS011;54685;52.082;5.426;2022-12-18T00:01:14;56.45;;;25.08;;
67889;SDS011;54685;52.082;5.426;2022-12-18T00:03:41;52.67;;;25.38;;
67889;SDS011;54685;52.082;5.426;2022-12-18T00:06:08;59.60;;;26.05;;
67889;SDS011;54685;52.082;5.426;2022-12-18T00:08:35;58.17;;;26.75;;
67889;SDS011;54685;52.082;5.426;2022-12-18T00:11:05;59.10;;;26.27;;
67889;SDS011;54685;52.082;5.426;2022-12-18T00:13:33;56.17;;;26.65;;
67889;SDS011;54685;52.082;5.426;2022-12-18T00:16:02;57.13;;;26.67;;
67889;SDS011;54685;52.082;5.426;2022-12-18T00:18:30;65.43;;;27.75;;
67889;SDS011;54685;52.082;5.426;2022-12-18T00:20:58;57.95;;;26.42;;
67889;SDS011;54685;52.082;5.426;2022-12-18T00:23:29;63.67;;;27.45;;
67889;SDS011;54685;52.082;5.426;2022-12-18T00:26:00;60.33;;;26.42;;
67889;SDS011;54685;52.082;5.426;2022-12-18T00:28:29;57.70;;;24.17;;
67889;SDS011;54685;52.082;5.426;2022-12-18T00:31:06;57.75;;;25.42;;
67889;SDS011;54685;52.082;5.426;2022-12-18T00:33:35;60.30;;;27.77;;
67889;SDS011;54685;52.082;5.426;2022-12-18T00:36:04;60.90;;;27.27;;
67889;SDS011;54685;52.082;5.426;2022-12-18T00:38:32;60.50;;;26.85;;
67889;SDS011;54685;52.082;5.426;2022-12-18T00:40:59;62.72;;;26.65;;
67889;SDS011;54685;52.082;5.426;2022-12-18T00:43:26;54.75;;;25.48;;
67889;SDS011;54685;52.082;5.426;2022-12-18T00:45:53;57.85;;;26.08;;
67889;SDS011;54685;52.082;5.426;2022-12-18T00:48:20;57.20;;;27.95;;
67889;SDS011;54685;52.082;5.426;2022-12-18T00:50:47;59.30;;;26.08;;
67889;SDS011;54685;52.082;5.426;2022-12-18T00:53:15;64.10;;;27.48;;
67889;SDS011;54685;52.082;5.426;2022-12-18T00:55:42;62.95;;;27.23;;
67889;SDS011;54685;52.082;5.426;2022-12-18T00:58:10;56.97;;;25.95;;
67889;SDS011;54685;52.082;5.426;2022-12-18T01:00:38;58.00;;;25.60;;
67889;SDS011;54685;52.082;5.426;2022-12-18T01:03:09;58.60;;;24.88;;
67889;SDS011;54685;52.082;5.426;2022-12-18T01:05:39;60.78;;;26.00;;
67889;SDS011;54685;52.082;5.426;2022-12-18T01:08:07;58.60;;;26.25;;
67889;SDS011;54685;52.082;5.426;2022-12-18T01:10:34;58.00;;;24.27;;
67889;SDS011;54685;52.082;5.426;2022-12-18T01:13:00;53.25;;;24.75;;
67889;SDS011;54685;52.082;5.426;2022-12-18T01:15:27;65.25;;;27.67;;
67889;SDS011;54685;52.082;5.426;2022-12-18T01:17:54;61.42;;;26.88;;
67889;SDS011;54685;52.082;5.426;2022-12-18T01:20:21;59.67;;;25.77;;
67889;SDS011;54685;52.082;5.426;2022-12-18T01:22:47;61.15;;;25.60;;
67889;SDS011;54685;52.082;5.426;2022-12-18T01:25:14;57.67;;;24.98;;
67889;SDS011;54685;52.082;5.426;2022-12-18T01:27:42;62.03;;;26.58;;
67889;SDS011;54685;52.082;5.426;2022-12-18T01:30:09;56.30;;;25.23;;
67889;SDS011;54685;52.082;5.426;2022-12-18T01:32:37;48.35;;;22.63;;
67889;SDS011;54685;52.082;5.426;2022-12-18T01:35:04;53.55;;;23.88;;
67889;SDS011;54685;52.082;5.426;2022-12-18T01:37:31;60.55;;;24.05;;
67889;SDS011;54685;52.082;5.426;2022-12-18T01:39:58;57.13;;;25.42;;
67889;SDS011;54685;52.082;5.426;2022-12-18T01:42:24;59.85;;;24.83;;
67889;SDS011;54685;52.082;5.426;2022-12-18T01:50:20;60.05;;;25.95;;
67889;SDS011;54685;52.082;5.426;2022-12-18T01:53:16;58.72;;;24.70;;
67889;SDS011;54685;52.082;5.426;2022-12-18T01:55:46;53.33;;;23.55;;
67889;SDS011;54685;52.082;5.426;2022-12-18T01:58:16;51.85;;;23.63;;
67889;SDS011;54685;52.082;5.426;2022-12-18T02:00:44;50.65;;;22.80;;
67889;SDS011;54685;52.082;5.426;2022-12-18T02:03:12;56.85;;;24.80;;
67889;SDS011;54685;52.082;5.426;2022-12-18T02:19:02;59.80;;;23.58;;
67889;SDS011;54685;52.082;5.426;2022-12-18T02:21:57;54.97;;;23.85;;
67889;SDS011;54685;52.082;5.426;2022-12-18T02:24:58;54.15;;;24.35;;
67889;SDS011;54685;52.082;5.426;2022-12-18T02:27:34;58.67;;;25.05;;
67889;SDS011;54685;52.082;5.426;2022-12-18T02:30:04;55.78;;;23.63;;
67889;SDS011;54685;52.082;5.426;2022-12-18T02:32:33;52.40;;;23.67;;
67889;SDS011;54685;52.082;5.426;2022-12-18T02:35:04;57.20;;;24.88;;
67889;SDS011;54685;52.082;5.426;2022-12-18T02:37:34;55.17;;;23.13;;
67889;SDS011;54685;52.082;5.426;2022-12-18T02:40:04;53.00;;;23.98;;
67889;SDS011;54685;52.082;5.426;2022-12-18T02:42:35;51.88;;;23.35;;
67889;SDS011;54685;52.082;5.426;2022-12-18T02:45:04;53.10;;;23.23;;
67889;SDS011;54685;52.082;5.426;2022-12-18T02:47:36;48.55;;;23.10;;
67889;SDS011;54685;52.082;5.426;2022-12-18T02:53:10;56.05;;;23.25;;
67889;SDS011;54685;52.082;5.426;2022-12-18T02:58:36;52.78;;;22.55;;
67889;SDS011;54685;52.082;5.426;2022-12-18T03:03:50;51.20;;;22.55;;
67889;SDS011;54685;52.082;5.426;2022-12-18T03:08:57;53.03;;;22.35;;
67889;SDS011;54685;52.082;5.426;2022-12-18T03:11:29;54.95;;;23.88;;
67889;SDS011;54685;52.082;5.426;2022-12-18T03:14:19;51.30;;;22.60;;
67889;SDS011;54685;52.082;5.426;2022-12-18T03:16:50;58.08;;;24.02;;
67889;SDS011;54685;52.082;5.426;2022-12-18T03:19:21;55.03;;;23.20;;
67889;SDS011;54685;52.082;5.426;2022-12-18T03:21:52;42.95;;;21.17;;
67889;SDS011;54685;52.082;5.426;2022-12-18T03:24:24;46.38;;;21.95;;
67889;SDS011;54685;52.082;5.426;2022-12-18T03:26:54;48.38;;;20.98;;
67889;SDS011;54685;52.082;5.426;2022-12-18T03:29:38;47.05;;;23.10;;
67889;SDS011;54685;52.082;5.426;2022-12-18T03:32:27;48.10;;;20.92;;
67889;SDS011;54685;52.082;5.426;2022-12-18T03:34:59;41.20;;;19.17;;
67889;SDS011;54685;52.082;5.426;2022-12-18T03:37:34;51.10;;;22.55;;
67889;SDS011;54685;52.082;5.426;2022-12-18T03:40:01;39.97;;;19.42;;
67889;SDS011;54685;52.082;5.426;2022-12-18T03:48:01;41.80;;;19.77;;
67889;SDS011;54685;52.082;5.426;2022-12-18T03:50:57;40.63;;;19.35;;
67889;SDS011;54685;52.082;5.426;2022-12-18T03:53:43;44.20;;;18.67;;
67889;SDS011;54685;52.082;5.426;2022-12-18T03:58:50;39.08;;;18.60;;
67889;SDS011;54685;52.082;5.426;2022-12-18T04:01:31;42.80;;;18.83;;
67889;SDS011;54685;52.082;5.426;2022-12-18T04:04:01;45.58;;;19.55;;
67889;SDS011;54685;52.082;5.426;2022-12-18T04:06:33;35.83;;;17.10;;
67889;SDS011;54685;52.082;5.426;2022-12-18T04:09:01;36.90;;;18.13;;
67889;SDS011;54685;52.082;5.426;2022-12-18T04:11:31;35.97;;;17.48;;
67889;SDS011;54685;52.082;5.426;2022-12-18T04:13:59;36.63;;;17.98;;
67889;SDS011;54685;52.082;5.426;2022-12-18T04:16:32;39.85;;;17.25;;
67889;SDS011;54685;52.082;5.426;2022-12-18T04:19:01;37.17;;;18.10;;
67889;SDS011;54685;52.082;5.426;2022-12-18T04:21:32;33.45;;;17.58;;
67889;SDS011;54685;52.082;5.426;2022-12-18T04:23:59;38.53;;;18.00;;
67889;SDS011;54685;52.082;5.426;2022-12-18T04:26:27;38.40;;;17.63;;
67889;SDS011;54685;52.082;5.426;2022-12-18T04:29:09;39.83;;;17.58;;
67889;SDS011;54685;52.082;5.426;2022-12-18T04:31:36;39.60;;;17.52;;
67889;SDS011;54685;52.082;5.426;2022-12-18T04:34:05;34.50;;;16.95;;
67889;SDS011;54685;52.082;5.426;2022-12-18T04:39:04;30.95;;;15.80;;
67889;SDS011;54685;52.082;5.426;2022-12-18T04:41:32;37.88;;;16.65;;
67889;SDS011;54685;52.082;5.426;2022-12-18T04:43:59;32.47;;;15.15;;
67889;SDS011;54685;52.082;5.426;2022-12-18T04:46:27;30.83;;;16.15;;
67889;SDS011;54685;52.082;5.426;2022-12-18T04:48:54;27.63;;;15.20;;
67889;SDS011;54685;52.082;5.426;2022-12-18T04:51:21;33.15;;;16.45;;
67889;SDS011;54685;52.082;5.426;2022-12-18T04:53:52;36.65;;;17.33;;
67889;SDS011;54685;52.082;5.426;2022-12-18T04:56:19;30.25;;;15.63;;
67889;SDS011;54685;52.082;5.426;2022-12-18T04:58:46;33.58;;;16.73;;
67889;SDS011;54685;52.082;5.426;2022-12-18T05:01:13;33.22;;;14.95;;
67889;SDS011;54685;52.082;5.426;2022-12-18T05:03:41;29.92;;;14.98;;
67889;SDS011;54685;52.082;5.426;2022-12-18T05:06:09;29.70;;;15.15;;
67889;SDS011;54685;52.082;5.426;2022-12-18T05:08:36;28.90;;;15.20;;
67889;SDS011;54685;52.082;5.426;2022-12-18T05:13:35;27.15;;;13.75;;
67889;SDS011;54685;52.082;5.426;2022-12-18T05:16:03;28.75;;;15.20;;
67889;SDS011;54685;52.082;5.426;2022-12-18T05:18:31;28.25;;;13.98;;
67889;SDS011;54685;52.082;5.426;2022-12-18T05:20:58;23.80;;;13.98;;
67889;SDS011;54685;52.082;5.426;2022-12-18T05:23:25;26.42;;;13.85;;
67889;SDS011;54685;52.082;5.426;2022-12-18T05:25:53;27.98;;;14.15;;
67889;SDS011;54685;52.082;5.426;2022-12-18T05:28:21;24.30;;;13.32;;
67889;SDS011;54685;52.082;5.426;2022-12-18T05:30:50;27.08;;;15.32;;
67889;SDS011;54685;52.082;5.426;2022-12-18T05:33:18;27.08;;;14.43;;
67889;SDS011;54685;52.082;5.426;2022-12-18T05:35:56;23.58;;;12.75;;
67889;SDS011;54685;52.082;5.426;2022-12-18T05:38:27;24.10;;;13.10;;
67889;SDS011;54685;52.082;5.426;2022-12-18T05:40:54;24.65;;;13.88;;
67889;SDS011;54685;52.082;5.426;2022-12-18T05:43:22;26.45;;;13.73;;
67889;SDS011;54685;52.082;5.426;2022-12-18T05:45:49;24.60;;;13.32;;
67889;SDS011;54685;52.082;5.426;2022-12-18T05:48:17;23.42;;;13.15;;
67889;SDS011;54685;52.082;5.426;2022-12-18T05:50:44;25.30;;;12.75;;
67889;SDS011;54685;52.082;5.426;2022-12-18T05:53:13;23.65;;;13.20;;
67889;SDS011;54685;52.082;5.426;2022-12-18T05:55:42;21.65;;;12.85;;
67889;SDS011;54685;52.082;5.426;2022-12-18T05:58:10;24.95;;;12.70;;
67889;SDS011;54685;52.082;5.426;2022-12-18T06:00:38;21.63;;;12.57;;
67889;SDS011;54685;52.082;5.426;2022-12-18T06:03:07;22.83;;;12.57;;
67889;SDS011;54685;52.082;5.426;2022-12-18T06:05:36;23.27;;;12.77;;
67889;SDS011;54685;52.082;5.426;2022-12-18T06:08:04;25.33;;;13.75;;
67889;SDS011;54685;52.082;5.426;2022-12-18T06:10:31;25.88;;;13.40;;
67889;SDS011;54685;52.082;5.426;2022-12-18T06:12:58;21.40;;;12.10;;
67889;SDS011;54685;52.082;5.426;2022-12-18T06:15:25;23.20;;;12.85;;
67889;SDS011;54685;52.082;5.426;2022-12-18T06:17:52;21.75;;;12.45;;
67889;SDS011;54685;52.082;5.426;2022-12-18T06:20:18;23.80;;;12.80;;
67889;SDS011;54685;52.082;5.426;2022-12-18T06:22:46;20.38;;;12.30;;
67889;SDS011;54685;52.082;5.426;2022-12-18T06:25:12;26.73;;;12.75;;
67889;SDS011;54685;52.082;5.426;2022-12-18T06:27:39;24.08;;;11.93;;
67889;SDS011;54685;52.082;5.426;2022-12-18T06:30:07;23.90;;;12.45;;
67889;SDS011;54685;52.082;5.426;2022-12-18T06:32:34;29.58;;;14.18;;
67889;SDS011;54685;52.082;5.426;2022-12-18T06:35:01;19.98;;;11.23;;
67889;SDS011;54685;52.082;5.426;2022-12-18T06:37:28;21.20;;;12.63;;
67889;SDS011;54685;52.082;5.426;2022-12-18T06:39:57;25.27;;;12.57;;
67889;SDS011;54685;52.082;5.426;2022-12-18T06:42:24;22.85;;;12.57;;
67889;SDS011;54685;52.082;5.426;2022-12-18T06:44:51;26.58;;;13.40;;
67889;SDS011;54685;52.082;5.426;2022-12-18T06:47:18;26.02;;;12.70;;
67889;SDS011;54685;52.082;5.426;2022-12-18T06:49:45;26.80;;;11.90;;
67889;SDS011;54685;52.082;5.426;2022-12-18T06:52:12;24.90;;;13.13;;
67889;SDS011;54685;52.082;5.426;2022-12-18T06:54:41;25.10;;;12.77;;
67889;SDS011;54685;52.082;5.426;2022-12-18T06:57:08;22.98;;;13.15;;
67889;SDS011;54685;52.082;5.426;2022-12-18T06:59:34;19.83;;;12.13;;
67889;SDS011;54685;52.082;5.426;2022-12-18T07:02:01;24.65;;;12.90;;
67889;SDS011;54685;52.082;5.426;2022-12-18T07:04:31;20.60;;;12.23;;
67889;SDS011;54685;52.082;5.426;2022-12-18T07:06:58;21.52;;;12.07;;
67889;SDS011;54685;52.082;5.426;2022-12-18T07:09:25;24.25;;;12.52;;
67889;SDS011;54685;52.082;5.426;2022-12-18T07:11:52;22.88;;;12.25;;
67889;SDS011;54685;52.082;5.426;2022-12-18T07:14:18;24.35;;;12.85;;
67889;SDS011;54685;52.082;5.426;2022-12-18T07:16:45;24.80;;;12.82;;
67889;SDS011;54685;52.082;5.426;2022-12-18T07:19:12;19.30;;;11.23;;
67889;SDS011;54685;52.082;5.426;2022-12-18T07:21:39;23.92;;;13.52;;
67889;SDS011;54685;52.082;5.426;2022-12-18T07:24:06;24.35;;;12.15;;
67889;SDS011;54685;52.082;5.426;2022-12-18T07:26:33;21.33;;;12.13;;
67889;SDS011;54685;52.082;5.426;2022-12-18T07:29:00;19.00;;;10.90;;
67889;SDS011;54685;52.082;5.426;2022-12-18T07:31:27;22.92;;;12.82;;
67889;SDS011;54685;52.082;5.426;2022-12-18T07:33:54;22.70;;;12.13;;
67889;SDS011;54685;52.082;5.426;2022-12-18T07:36:21;23.23;;;12.18;;
67889;SDS011;54685;52.082;5.426;2022-12-18T07:38:48;27.75;;;13.57;;
67889;SDS011;54685;52.082;5.426;2022-12-18T07:41:15;24.00;;;12.77;;
67889;SDS011;54685;52.082;5.426;2022-12-18T07:43:42;21.75;;;12.68;;
67889;SDS011;54685;52.082;5.426;2022-12-18T07:46:09;22.67;;;12.50;;
67889;SDS011;54685;52.082;5.426;2022-12-18T07:48:39;26.85;;;14.75;;
67889;SDS011;54685;52.082;5.426;2022-12-18T07:51:07;23.52;;;13.18;;
67889;SDS011;54685;52.082;5.426;2022-12-18T07:53:37;21.65;;;12.10;;
67889;SDS011;54685;52.082;5.426;2022-12-18T07:56:05;24.70;;;13.35;;
67889;SDS011;54685;52.082;5.426;2022-12-18T07:58:54;22.48;;;12.80;;
67889;SDS011;54685;52.082;5.426;2022-12-18T08:01:21;22.60;;;13.00;;
67889;SDS011;54685;52.082;5.426;2022-12-18T08:03:48;22.35;;;12.27;;
67889;SDS011;54685;52.082;5.426;2022-12-18T08:06:18;22.65;;;12.52;;
67889;SDS011;54685;52.082;5.426;2022-12-18T08:08:53;22.08;;;12.02;;
67889;SDS011;54685;52.082;5.426;2022-12-18T08:11:21;21.17;;;11.77;;
67889;SDS011;54685;52.082;5.426;2022-12-18T08:13:49;19.80;;;11.93;;
67889;SDS011;54685;52.082;5.426;2022-12-18T08:16:16;20.75;;;12.35;;
67889;SDS011;54685;52.082;5.426;2022-12-18T08:18:45;20.60;;;11.68;;
67889;SDS011;54685;52.082;5.426;2022-12-18T08:21:16;23.90;;;12.98;;
67889;SDS011;54685;52.082;5.426;2022-12-18T08:23:47;22.35;;;12.07;;
67889;SDS011;54685;52.082;5.426;2022-12-18T08:26:16;21.48;;;11.75;;
67889;SDS011;54685;52.082;5.426;2022-12-18T08:28:44;26.63;;;12.95;;
67889;SDS011;54685;52.082;5.426;2022-12-18T08:31:14;24.30;;;12.95;;
67889;SDS011;54685;52.082;5.426;2022-12-18T08:33:42;24.75;;;12.98;;
67889;SDS011;54685;52.082;5.426;2022-12-18T08:36:10;26.92;;;13.77;;
67889;SDS011;54685;52.082;5.426;2022-12-18T08:38:37;24.00;;;12.73;;
67889;SDS011;54685;52.082;5.426;2022-12-18T08:41:05;20.70;;;11.65;;
67889;SDS011;54685;52.082;5.426;2022-12-18T08:43:33;21.67;;;11.77;;
67889;SDS011;54685;52.082;5.426;2022-12-18T08:46:19;21.42;;;12.15;;
67889;SDS011;54685;52.082;5.426;2022-12-18T08:48:49;21.42;;;12.25;;
67889;SDS011;54685;52.082;5.426;2022-12-18T08:51:17;21.40;;;12.02;;
67889;SDS011;54685;52.082;5.426;2022-12-18T08:53:44;22.35;;;12.60;;
67889;SDS011;54685;52.082;5.426;2022-12-18T08:56:11;21.05;;;12.05;;
67889;SDS011;54685;52.082;5.426;2022-12-18T08:58:39;22.10;;;12.65;;
67889;SDS011;54685;52.082;5.426;2022-12-18T09:01:07;18.23;;;11.82;;
67889;SDS011;54685;52.082;5.426;2022-12-18T09:03:35;20.42;;;11.82;;
67889;SDS011;54685;52.082;5.426;2022-12-18T09:06:03;20.73;;;12.43;;
67889;SDS011;54685;52.082;5.426;2022-12-18T09:08:31;22.80;;;11.63;;
67889;SDS011;54685;52.082;5.426;2022-12-18T09:11:01;23.83;;;13.10;;
67889;SDS011;54685;52.082;5.426;2022-12-18T09:13:28;19.35;;;11.05;;
67889;SDS011;54685;52.082;5.426;2022-12-18T09:15:55;23.95;;;13.45;;
67889;SDS011;54685;52.082;5.426;2022-12-18T09:18:22;20.88;;;12.75;;
67889;SDS011;54685;52.082;5.426;2022-12-18T09:20:49;22.77;;;11.98;;
67889;SDS011;54685;52.082;5.426;2022-12-18T09:23:18;19.80;;;12.27;;
67889;SDS011;54685;52.082;5.426;2022-12-18T09:25:45;19.45;;;11.35;;
67889;SDS011;54685;52.082;5.426;2022-12-18T09:28:13;18.88;;;11.57;;
67889;SDS011;54685;52.082;5.426;2022-12-18T09:30:43;21.38;;;11.98;;
67889;SDS011;54685;52.082;5.426;2022-12-18T09:35:43;15.88;;;9.57;;
67889;SDS011;54685;52.082;5.426;2022-12-18T09:38:12;20.30;;;11.52;;
67889;SDS011;54685;52.082;5.426;2022-12-18T09:40:43;23.38;;;12.50;;
67889;SDS011;54685;52.082;5.426;2022-12-18T09:43:20;19.92;;;11.13;;
67889;SDS011;54685;52.082;5.426;2022-12-18T09:45:58;19.25;;;10.85;;
67889;SDS011;54685;52.082;5.426;2022-12-18T09:48:44;19.63;;;10.73;;
67889;SDS011;54685;52.082;5.426;2022-12-18T09:51:19;19.17;;;11.23;;
67889;SDS011;54685;52.082;5.426;2022-12-18T09:53:53;17.02;;;10.90;;
67889;SDS011;54685;52.082;5.426;2022-12-18T09:56:25;20.60;;;12.90;;
67889;SDS011;54685;52.082;5.426;2022-12-18T09:58:57;18.98;;;11.32;;
67889;SDS011;54685;52.082;5.426;2022-12-18T10:01:26;18.45;;;11.20;;
67889;SDS011;54685;52.082;5.426;2022-12-18T10:04:08;20.27;;;11.50;;
67889;SDS011;54685;52.082;5.426;2022-12-18T10:06:36;18.58;;;11.60;;
67889;SDS011;54685;52.082;5.426;2022-12-18T10:09:20;18.77;;;11.10;;
67889;SDS011;54685;52.082;5.426;2022-12-18T10:17:26;24.73;;;12.35;;
67889;SDS011;54685;52.082;5.426;2022-12-18T10:20:02;17.90;;;10.02;;
67889;SDS011;54685;52.082;5.426;2022-12-18T10:22:51;19.52;;;10.88;;
67889;SDS011;54685;52.082;5.426;2022-12-18T10:28:34;18.45;;;10.40;;
67889;SDS011;54685;52.082;5.426;2022-12-18T10:31:04;19.20;;;10.77;;
67889;SDS011;54685;52.082;5.426;2022-12-18T10:33:33;14.75;;;10.02;;
67889;SDS011;54685;52.082;5.426;2022-12-18T10:36:00;18.55;;;11.30;;
67889;SDS011;54685;52.082;5.426;2022-12-18T10:38:27;16.58;;;10.63;;
67889;SDS011;54685;52.082;5.426;2022-12-18T10:40:59;20.42;;;10.48;;
67889;SDS011;54685;52.082;5.426;2022-12-18T10:43:39;18.42;;;11.27;;
67889;SDS011;54685;52.082;5.426;2022-12-18T10:48:55;16.90;;;10.63;;
67889;SDS011;54685;52.082;5.426;2022-12-18T10:51:29;20.50;;;10.10;;
67889;SDS011;54685;52.082;5.426;2022-12-18T10:54:03;18.77;;;11.48;;
67889;SDS011;54685;52.082;5.426;2022-12-18T10:56:51;17.02;;;11.07;;
67889;SDS011;54685;52.082;5.426;2022-12-18T10:59:49;18.02;;;10.88;;
67889;SDS011;54685;52.082;5.426;2022-12-18T11:02:28;21.45;;;11.15;;
67889;SDS011;54685;52.082;5.426;2022-12-18T11:05:02;18.17;;;10.82;;
67889;SDS011;54685;52.082;5.426;2022-12-18T11:07:49;19.88;;;10.20;;
67889;SDS011;54685;52.082;5.426;2022-12-18T11:10:17;21.55;;;12.05;;
67889;SDS011;54685;52.082;5.426;2022-12-18T11:12:45;17.92;;;11.13;;
67889;SDS011;54685;52.082;5.426;2022-12-18T11:15:16;19.63;;;11.43;;
67889;SDS011;54685;52.082;5.426;2022-12-18T11:17:56;20.30;;;11.05;;
67889;SDS011;54685;52.082;5.426;2022-12-18T11:20:32;16.63;;;9.98;;
67889;SDS011;54685;52.082;5.426;2022-12-18T11:23:05;19.20;;;11.23;;
67889;SDS011;54685;52.082;5.426;2022-12-18T11:25:38;16.77;;;10.13;;
67889;SDS011;54685;52.082;5.426;2022-12-18T11:28:25;19.85;;;11.05;;
67889;SDS011;54685;52.082;5.426;2022-12-18T11:33:50;18.13;;;10.85;;
67889;SDS011;54685;52.082;5.426;2022-12-18T11:36:43;17.00;;;10.90;;
67889;SDS011;54685;52.082;5.426;2022-12-18T11:39:14;15.77;;;9.70;;
67889;SDS011;54685;52.082;5.426;2022-12-18T11:41:52;17.33;;;9.73;;
67889;SDS011;54685;52.082;5.426;2022-12-18T11:53:02;15.43;;;9.38;;
67889;SDS011;54685;52.082;5.426;2022-12-18T11:58:32;15.80;;;9.90;;
67889;SDS011;54685;52.082;5.426;2022-12-18T12:12:17;22.52;;;10.63;;
67889;SDS011;54685;52.082;5.426;2022-12-18T12:17:45;18.73;;;10.02;;
67889;SDS011;54685;52.082;5.426;2022-12-18T12:25:55;20.67;;;10.68;;
67889;SDS011;54685;52.082;5.426;2022-12-18T12:28:47;16.02;;;9.73;;
67889;SDS011;54685;52.082;5.426;2022-12-18T12:32:06;16.70;;;10.13;;
67889;SDS011;54685;52.082;5.426;2022-12-18T12:37:38;18.67;;;10.73;;
67889;SDS011;54685;52.082;5.426;2022-12-18T12:40:13;24.95;;;13.07;;
67889;SDS011;54685;52.082;5.426;2022-12-18T12:43:10;17.52;;;11.18;;
67889;SDS011;54685;52.082;5.426;2022-12-18T12:46:03;17.67;;;9.93;;
67889;SDS011;54685;52.082;5.426;2022-12-18T12:48:47;19.95;;;11.93;;
67889;SDS011;54685;52.082;5.426;2022-12-18T12:51:26;21.75;;;12.73;;
67889;SDS011;54685;52.082;5.426;2022-12-18T12:54:02;19.90;;;11.95;;
67889;SDS011;54685;52.082;5.426;2022-12-18T12:56:39;19.63;;;11.02;;
67889;SDS011;54685;52.082;5.426;2022-12-18T12:59:27;21.38;;;11.10;;
67889;SDS011;54685;52.082;5.426;2022-12-18T13:02:10;18.75;;;11.00;;
67889;SDS011;54685;52.082;5.426;2022-12-18T13:04:52;17.20;;;10.65;;
67889;SDS011;54685;52.082;5.426;2022-12-18T13:13:09;16.58;;;10.27;;
67889;SDS011;54685;52.082;5.426;2022-12-18T13:15:46;17.60;;;10.27;;
67889;SDS011;54685;52.082;5.426;2022-12-18T13:18:31;17.95;;;10.35;;
67889;SDS011;54685;52.082;5.426;2022-12-18T13:23:30;23.83;;;14.55;;
67889;SDS011;54685;52.082;5.426;2022-12-18T13:31:00;20.95;;;12.57;;
67889;SDS011;54685;52.082;5.426;2022-12-18T13:33:38;16.38;;;10.75;;
67889;SDS011;54685;52.082;5.426;2022-12-18T13:36:30;20.15;;;10.75;;
67889;SDS011;54685;52.082;5.426;2022-12-18T13:41:37;21.27;;;11.10;;
67889;SDS011;54685;52.082;5.426;2022-12-18T13:47:24;22.35;;;13.20;;
67889;SDS011;54685;52.082;5.426;2022-12-18T13:49:54;23.30;;;14.00;;
67889;SDS011;54685;52.082;5.426;2022-12-18T13:52:26;23.48;;;12.38;;
67889;SDS011;54685;52.082;5.426;2022-12-18T13:55:00;18.23;;;11.43;;
67889;SDS011;54685;52.082;5.426;2022-12-18T13:57:35;19.23;;;12.13;;
67889;SDS011;54685;52.082;5.426;2022-12-18T14:02:49;17.17;;;11.35;;
67889;SDS011;54685;52.082;5.426;2022-12-18T14:05:29;25.38;;;12.85;;
67889;SDS011;54685;52.082;5.426;2022-12-18T14:08:15;24.33;;;13.10;;
67889;SDS011;54685;52.082;5.426;2022-12-18T14:10:43;19.15;;;12.32;;
67889;SDS011;54685;52.082;5.426;2022-12-18T14:13:15;21.60;;;12.73;;
67889;SDS011;54685;52.082;5.426;2022-12-18T14:15:54;21.17;;;11.95;;
67889;SDS011;54685;52.082;5.426;2022-12-18T14:21:17;20.80;;;11.77;;
67889;SDS011;54685;52.082;5.426;2022-12-18T14:26:46;20.15;;;11.95;;
67889;SDS011;54685;52.082;5.426;2022-12-18T14:32:11;17.25;;;10.93;;
67889;SDS011;54685;52.082;5.426;2022-12-18T14:37:15;17.92;;;10.52;;
67889;SDS011;54685;52.082;5.426;2022-12-18T14:39:56;19.42;;;10.88;;
67889;SDS011;54685;52.082;5.426;2022-12-18T14:42:31;17.48;;;11.10;;
67889;SDS011;54685;52.082;5.426;2022-12-18T14:50:39;22.17;;;12.07;;
67889;SDS011;54685;52.082;5.426;2022-12-18T14:53:06;18.73;;;11.13;;
67889;SDS011;54685;52.082;5.426;2022-12-18T14:55:45;21.20;;;11.70;;
67889;SDS011;54685;52.082;5.426;2022-12-18T14:58:14;20.48;;;11.90;;
67889;SDS011;54685;52.082;5.426;2022-12-18T15:00:43;25.08;;;13.38;;
67889;SDS011;54685;52.082;5.426;2022-12-18T15:03:12;19.77;;;10.75;;
67889;SDS011;54685;52.082;5.426;2022-12-18T15:05:46;21.10;;;11.90;;
67889;SDS011;54685;52.082;5.426;2022-12-18T15:11:26;17.53;;;11.00;;
67889;SDS011;54685;52.082;5.426;2022-12-18T15:14:33;20.60;;;11.68;;
67889;SDS011;54685;52.082;5.426;2022-12-18T15:17:06;22.15;;;13.38;;
67889;SDS011;54685;52.082;5.426;2022-12-18T15:20:03;23.20;;;12.75;;
67889;SDS011;54685;52.082;5.426;2022-12-18T15:22:38;28.13;;;14.07;;
67889;SDS011;54685;52.082;5.426;2022-12-18T15:25:20;23.65;;;12.07;;
67889;SDS011;54685;52.082;5.426;2022-12-18T15:27:56;18.17;;;11.55;;
67889;SDS011;54685;52.082;5.426;2022-12-18T15:30:24;20.38;;;11.57;;
67889;SDS011;54685;52.082;5.426;2022-12-18T15:32:52;17.42;;;10.45;;
67889;SDS011;54685;52.082;5.426;2022-12-18T15:36:00;23.98;;;11.40;;
67889;SDS011;54685;52.082;5.426;2022-12-18T15:38:34;24.20;;;12.48;;
67889;SDS011;54685;52.082;5.426;2022-12-18T15:41:01;15.55;;;10.43;;
67889;SDS011;54685;52.082;5.426;2022-12-18T15:43:31;21.60;;;11.80;;
67889;SDS011;54685;52.082;5.426;2022-12-18T15:46:01;19.30;;;11.18;;
67889;SDS011;54685;52.082;5.426;2022-12-18T15:48:30;20.98;;;11.93;;
67889;SDS011;54685;52.082;5.426;2022-12-18T15:51:08;19.40;;;11.98;;
67889;SDS011;54685;52.082;5.426;2022-12-18T15:53:39;19.02;;;11.32;;
67889;SDS011;54685;52.082;5.426;2022-12-18T15:56:09;24.35;;;13.43;;
67889;SDS011;54685;52.082;5.426;2022-12-18T15:58:55;21.67;;;11.88;;
67889;SDS011;54685;52.082;5.426;2022-12-18T16:01:23;19.35;;;12.50;;
67889;SDS011;54685;52.082;5.426;2022-12-18T16:03:52;18.65;;;12.20;;
67889;SDS011;54685;52.082;5.426;2022-12-18T16:06:20;20.38;;;12.05;;
67889;SDS011;54685;52.082;5.426;2022-12-18T16:08:47;23.77;;;12.43;;
67889;SDS011;54685;52.082;5.426;2022-12-18T16:14:17;27.63;;;15.13;;
67889;SDS011;54685;52.082;5.426;2022-12-18T16:16:48;22.80;;;13.13;;
67889;SDS011;54685;52.082;5.426;2022-12-18T16:19:19;23.40;;;13.63;;
67889;SDS011;54685;52.082;5.426;2022-12-18T16:21:47;24.05;;;12.30;;
67889;SDS011;54685;52.082;5.426;2022-12-18T16:24:16;23.88;;;13.00;;
67889;SDS011;54685;52.082;5.426;2022-12-18T16:26:43;24.02;;;13.55;;
67889;SDS011;54685;52.082;5.426;2022-12-18T16:29:10;22.33;;;12.70;;
67889;SDS011;54685;52.082;5.426;2022-12-18T16:31:37;23.70;;;12.77;;
67889;SDS011;54685;52.082;5.426;2022-12-18T16:36:40;22.25;;;13.27;;
67889;SDS011;54685;52.082;5.426;2022-12-18T16:39:07;26.25;;;13.98;;
67889;SDS011;54685;52.082;5.426;2022-12-18T16:41:34;25.27;;;13.45;;
67889;SDS011;54685;52.082;5.426;2022-12-18T16:44:01;24.52;;;13.70;;
67889;SDS011;54685;52.082;5.426;2022-12-18T16:46:29;22.63;;;13.52;;
67889;SDS011;54685;52.082;5.426;2022-12-18T16:48:57;22.88;;;13.05;;
67889;SDS011;54685;52.082;5.426;2022-12-18T16:51:25;23.10;;;13.85;;
67889;SDS011;54685;52.082;5.426;2022-12-18T16:53:53;26.63;;;15.43;;
67889;SDS011;54685;52.082;5.426;2022-12-18T16:56:21;22.23;;;13.43;;
67889;SDS011;54685;52.082;5.426;2022-12-18T16:58:52;26.23;;;14.50;;
67889;SDS011;54685;52.082;5.426;2022-12-18T17:01:20;25.88;;;13.50;;
67889;SDS011;54685;52.082;5.426;2022-12-18T17:03:51;20.85;;;13.23;;
67889;SDS011;54685;52.082;5.426;2022-12-18T17:06:24;23.40;;;13.95;;
67889;SDS011;54685;52.082;5.426;2022-12-18T17:08:55;25.48;;;14.43;;